Time;durP1;ratioP1;P1;durP2;ratioP2;P2;SDS_P1;SDS_P2;PMS_P1;PMS_P2;Temp;Humidity;BMP_temperature;BMP_pressure;BME280_temperature;BME280_humidity;BME280_pressure;Samples;Min_cycle;Max_cycle;Signal;HPM_P1;HPM_P2
2022/07/17 00:00:17;;;;;;;4.83;2.33;;;;;;;;;;5034768;28;20203;-64
2022/07/17 00:02:43;;;;;;;4.20;2.20;;;;;;;;;;5017020;28;20274;-65
2022/07/17 00:05:09;;;;;;;2.97;2.20;;;;;;;;;;5034957;28;20215;-65
2022/07/17 00:07:35;;;;;;;6.67;2.40;;;;;;;;;;5033727;28;20199;-64
2022/07/17 00:10:01;;;;;;;5.20;2.50;;;;;;;;;;5034367;28;20214;-65
2022/07/17 00:12:27;;;;;;;7.07;2.40;;;;;;;;;;5034890;28;20624;-64
2022/07/17 00:14:53;;;;;;;7.10;2.53;;;;;;;;;;5035105;28;20178;-64
2022/07/17 00:17:21;;;;;;;6.03;2.23;;;;;;;;;;5016737;28;20186;-65
2022/07/17 00:19:47;;;;;;;4.87;2.07;;;;;;;;;;5016582;28;20203;-64
2022/07/17 00:22:13;;;;;;;3.87;2.10;;;;;;;;;;5035069;28;20198;-65
2022/07/17 00:24:39;;;;;;;4.63;2.23;;;;;;;;;;5034404;28;20179;-64
2022/07/17 00:27:05;;;;;;;4.80;2.50;;;;;;;;;;5034571;28;20679;-64
2022/07/17 00:29:31;;;;;;;5.70;2.37;;;;;;;;;;5016465;28;20689;-64
2022/07/17 00:31:56;;;;;;;3.50;2.30;;;;;;;;;;5034257;28;20179;-64
2022/07/17 00:34:22;;;;;;;5.40;2.23;;;;;;;;;;5016509;28;20183;-65
2022/07/17 00:36:48;;;;;;;2.77;2.10;;;;;;;;;;5034145;28;20186;-64
2022/07/17 00:39:14;;;;;;;4.83;2.23;;;;;;;;;;5016323;28;20631;-65
2022/07/17 00:41:40;;;;;;;4.83;2.03;;;;;;;;;;5033995;28;20587;-65
2022/07/17 00:44:07;;;;;;;5.10;2.40;;;;;;;;;;5034330;28;20555;-65
2022/07/17 00:46:33;;;;;;;5.43;2.60;;;;;;;;;;5034150;28;20554;-65
2022/07/17 00:49:00;;;;;;;6.67;2.37;;;;;;;;;;5033888;28;20195;-64
2022/07/17 00:51:26;;;;;;;5.63;2.80;;;;;;;;;;5016202;28;20203;-64
2022/07/17 00:53:52;;;;;;;4.60;2.40;;;;;;;;;;5016209;28;20186;-65
2022/07/17 00:56:18;;;;;;;2.60;1.80;;;;;;;;;;5033786;28;20647;-65
2022/07/17 00:58:45;;;;;;;4.37;2.00;;;;;;;;;;5033899;28;20203;-64
2022/07/17 01:01:11;;;;;;;3.43;2.00;;;;;;;;;;5016031;28;20183;-65
2022/07/17 01:03:37;;;;;;;4.37;2.27;;;;;;;;;;5034266;28;20238;-65
2022/07/17 01:06:03;;;;;;;6.13;1.87;;;;;;;;;;5015949;28;20564;-65
2022/07/17 01:08:29;;;;;;;6.00;2.00;;;;;;;;;;5033580;28;20175;-65
2022/07/17 01:10:55;;;;;;;3.13;2.10;;;;;;;;;;5034026;28;20163;-65
2022/07/17 01:13:21;;;;;;;3.73;2.50;;;;;;;;;;5033997;28;20232;-65
2022/07/17 01:15:47;;;;;;;6.50;2.93;;;;;;;;;;5015797;28;20175;-65
2022/07/17 01:18:14;;;;;;;5.90;2.30;;;;;;;;;;5016132;28;20190;-65
2022/07/17 01:20:41;;;;;;;7.23;3.13;;;;;;;;;;5033237;28;20207;-65
2022/07/17 01:23:08;;;;;;;5.07;1.97;;;;;;;;;;5033918;28;20182;-65
2022/07/17 01:25:34;;;;;;;6.40;1.80;;;;;;;;;;5015650;28;20655;-65
2022/07/17 01:28:00;;;;;;;3.73;1.97;;;;;;;;;;5033227;28;20199;-65
2022/07/17 01:30:26;;;;;;;4.27;1.97;;;;;;;;;;5033448;28;20199;-65
2022/07/17 01:32:52;;;;;;;3.87;2.20;;;;;;;;;;5015619;28;20185;-65
2022/07/17 01:35:18;;;;;;;5.40;2.13;;;;;;;;;;5033313;28;20300;-65
2022/07/17 01:37:44;;;;;;;3.50;1.80;;;;;;;;;;5033207;28;20183;-65
2022/07/17 01:40:12;;;;;;;4.27;1.93;;;;;;;;;;5015716;28;20203;-65
2022/07/17 01:42:39;;;;;;;4.73;2.30;;;;;;;;;;5015474;28;20206;-65
2022/07/17 01:45:05;;;;;;;4.83;2.10;;;;;;;;;;5015548;28;20179;-65
2022/07/17 01:47:31;;;;;;;3.27;2.17;;;;;;;;;;5033206;28;20721;-66
2022/07/17 01:49:58;;;;;;;5.43;1.97;;;;;;;;;;5033156;28;20198;-65
2022/07/17 01:52:24;;;;;;;3.97;2.20;;;;;;;;;;5015415;28;20221;-65
2022/07/17 01:54:51;;;;;;;4.43;2.03;;;;;;;;;;5015498;28;20258;-65
2022/07/17 01:57:17;;;;;;;6.77;3.00;;;;;;;;;;5033407;28;20528;-65
2022/07/17 01:59:43;;;;;;;5.60;2.60;;;;;;;;;;5034546;28;20341;-65
2022/07/17 02:02:09;;;;;;;8.17;2.80;;;;;;;;;;5035636;28;20188;-65
2022/07/17 02:04:36;;;;;;;3.30;2.10;;;;;;;;;;5017859;28;20183;-65
2022/07/17 02:07:03;;;;;;;6.90;2.47;;;;;;;;;;5035368;28;20214;-65
2022/07/17 02:09:29;;;;;;;6.23;2.77;;;;;;;;;;5036735;28;20225;-64
2022/07/17 02:11:55;;;;;;;5.20;2.30;;;;;;;;;;5017996;28;20179;-65
2022/07/17 02:14:21;;;;;;;4.80;2.47;;;;;;;;;;5016338;28;20593;-65
2022/07/17 02:16:47;;;;;;;6.83;2.57;;;;;;;;;;5033209;28;20183;-65
2022/07/17 02:19:13;;;;;;;5.10;2.77;;;;;;;;;;5033031;28;20675;-65
2022/07/17 02:21:39;;;;;;;4.67;2.67;;;;;;;;;;5033183;28;20187;-65
2022/07/17 02:24:05;;;;;;;4.90;2.50;;;;;;;;;;5032903;28;20697;-65
2022/07/17 02:26:31;;;;;;;3.50;2.40;;;;;;;;;;5015111;28;20582;-64
2022/07/17 02:28:57;;;;;;;5.60;2.60;;;;;;;;;;5015443;28;20203;-64
2022/07/17 02:31:23;;;;;;;5.63;2.63;;;;;;;;;;5036925;28;20662;-65
2022/07/17 02:33:49;;;;;;;8.07;2.83;;;;;;;;;;5036845;28;20175;-65
2022/07/17 02:36:15;;;;;;;5.03;2.53;;;;;;;;;;5036949;28;20172;-65
2022/07/17 02:38:41;;;;;;;8.10;2.40;;;;;;;;;;5018853;28;20560;-64
2022/07/17 02:41:07;;;;;;;5.40;2.20;;;;;;;;;;5037143;28;20179;-65
2022/07/17 02:43:33;;;;;;;8.10;3.10;;;;;;;;;;5037468;28;20171;-65
2022/07/17 02:46:00;;;;;;;6.77;2.53;;;;;;;;;;5036905;28;20171;-64
2022/07/17 02:48:26;;;;;;;4.23;2.30;;;;;;;;;;5036361;28;20223;-65
2022/07/17 02:50:52;;;;;;;5.13;2.40;;;;;;;;;;5018872;28;20229;-64
2022/07/17 02:53:18;;;;;;;8.83;2.50;;;;;;;;;;5018707;28;20189;-64
2022/07/17 02:55:44;;;;;;;4.93;2.33;;;;;;;;;;5018777;28;20178;-64
2022/07/17 02:58:10;;;;;;;7.90;2.43;;;;;;;;;;5036404;28;20183;-64
2022/07/17 03:00:36;;;;;;;7.30;2.47;;;;;;;;;;5018908;28;20286;-65
2022/07/17 03:03:02;;;;;;;4.00;2.40;;;;;;;;;;5036380;28;20207;-65
2022/07/17 03:05:28;;;;;;;8.00;2.80;;;;;;;;;;5036156;28;20187;-65
2022/07/17 03:07:54;;;;;;;4.33;2.33;;;;;;;;;;5018290;28;20225;-64
2022/07/17 03:10:20;;;;;;;6.00;2.30;;;;;;;;;;5035921;28;20683;-64
2022/07/17 03:12:46;;;;;;;8.30;2.80;;;;;;;;;;5018325;28;20215;-64
2022/07/17 03:15:12;;;;;;;5.97;2.53;;;;;;;;;;5035967;28;20183;-64
2022/07/17 03:17:38;;;;;;;3.90;2.40;;;;;;;;;;5035802;28;20182;-64
2022/07/17 03:20:04;;;;;;;5.33;2.40;;;;;;;;;;5036142;28;20578;-65
2022/07/17 03:22:30;;;;;;;7.03;2.33;;;;;;;;;;5035902;28;20202;-65
2022/07/17 03:24:56;;;;;;;5.40;2.20;;;;;;;;;;5035673;28;20667;-65
2022/07/17 03:27:22;;;;;;;4.43;2.33;;;;;;;;;;5035872;28;20733;-65
2022/07/17 03:29:48;;;;;;;4.63;2.43;;;;;;;;;;5017613;28;20199;-65
2022/07/17 03:32:14;;;;;;;3.60;2.20;;;;;;;;;;5036059;28;20188;-65
2022/07/17 03:34:40;;;;;;;8.77;2.23;;;;;;;;;;5035763;28;20270;-65
2022/07/17 03:37:06;;;;;;;7.27;3.00;;;;;;;;;;5017705;28;20183;-65
2022/07/17 03:39:32;;;;;;;6.23;2.97;;;;;;;;;;5035540;28;20210;-65
2022/07/17 03:41:58;;;;;;;4.87;2.30;;;;;;;;;;5017483;28;20179;-66
2022/07/17 03:44:24;;;;;;;4.80;2.10;;;;;;;;;;5035252;28;20191;-65
2022/07/17 03:46:50;;;;;;;7.67;2.80;;;;;;;;;;5035161;28;20285;-64
2022/07/17 03:49:16;;;;;;;7.27;2.37;;;;;;;;;;5065452;22;20723;-69
2022/07/17 03:51:42;;;;;;;4.50;2.60;;;;;;;;;;5037050;28;20186;-68
2022/07/17 03:54:08;;;;;;;4.70;2.33;;;;;;;;;;5055228;28;20266;-68
2022/07/17 03:56:34;;;;;;;5.07;2.47;;;;;;;;;;5054872;28;20214;-69
2022/07/17 03:59:00;;;;;;;9.20;3.40;;;;;;;;;;5054929;28;20291;-68
2022/07/17 04:01:26;;;;;;;6.73;2.40;;;;;;;;;;5054862;28;20182;-68
2022/07/17 04:03:52;;;;;;;7.03;2.70;;;;;;;;;;5054970;28;20553;-68
2022/07/17 04:06:18;;;;;;;8.50;2.57;;;;;;;;;;5036774;28;20269;-68
2022/07/17 04:08:44;;;;;;;6.77;2.50;;;;;;;;;;5054710;28;20197;-68
2022/07/17 04:11:10;;;;;;;4.03;2.03;;;;;;;;;;5054574;28;20175;-69
2022/07/17 04:13:36;;;;;;;3.37;1.90;;;;;;;;;;5036699;28;20181;-69
2022/07/17 04:16:02;;;;;;;6.97;2.90;;;;;;;;;;5036708;28;20186;-69
2022/07/17 04:18:29;;;;;;;4.33;2.53;;;;;;;;;;5036505;28;20207;-68
2022/07/17 04:20:57;;;;;;;5.00;2.70;;;;;;;;;;5036553;28;20531;-69
2022/07/17 04:23:23;;;;;;;6.70;2.20;;;;;;;;;;5054297;28;20552;-68
2022/07/17 04:25:49;;;;;;;4.83;2.40;;;;;;;;;;5054558;28;20175;-68
2022/07/17 04:28:15;;;;;;;4.20;2.07;;;;;;;;;;5054137;28;20221;-68
2022/07/17 04:30:41;;;;;;;4.80;2.30;;;;;;;;;;5036308;28;20178;-68
2022/07/17 04:33:07;;;;;;;5.20;2.20;;;;;;;;;;5054460;28;20308;-69
2022/07/17 04:35:33;;;;;;;4.63;2.57;;;;;;;;;;5036334;28;20271;-69
2022/07/17 04:37:59;;;;;;;8.40;2.90;;;;;;;;;;5054048;28;20194;-69
2022/07/17 04:40:25;;;;;;;3.80;2.40;;;;;;;;;;5036122;28;20277;-67
2022/07/17 04:42:51;;;;;;;3.97;2.30;;;;;;;;;;5054273;28;20670;-67
2022/07/17 04:45:17;;;;;;;4.27;2.30;;;;;;;;;;5036240;28;20241;-67
2022/07/17 04:47:43;;;;;;;5.70;2.27;;;;;;;;;;5053790;28;20214;-67
2022/07/17 04:50:10;;;;;;;5.30;2.50;;;;;;;;;;5036120;28;20167;-67
2022/07/17 04:52:36;;;;;;;7.80;2.80;;;;;;;;;;5053657;28;20647;-67
2022/07/17 04:55:02;;;;;;;5.50;2.87;;;;;;;;;;5035840;28;20178;-67
2022/07/17 04:57:28;;;;;;;7.10;2.37;;;;;;;;;;5053553;28;20520;-66
2022/07/17 04:59:54;;;;;;;5.80;2.33;;;;;;;;;;5053758;28;20174;-67
2022/07/17 05:02:20;;;;;;;12.60;2.80;;;;;;;;;;5053641;28;20539;-68
2022/07/17 05:04:47;;;;;;;10.90;2.80;;;;;;;;;;5053655;28;20174;-67
2022/07/17 05:07:13;;;;;;;3.73;2.33;;;;;;;;;;5053466;28;20209;-67
2022/07/17 05:09:39;;;;;;;4.80;2.40;;;;;;;;;;5035522;28;20728;-67
2022/07/17 05:12:05;;;;;;;7.83;2.40;;;;;;;;;;5053666;28;20178;-67
2022/07/17 05:14:31;;;;;;;7.10;2.50;;;;;;;;;;5053375;28;20175;-67
2022/07/17 05:16:57;;;;;;;7.00;2.90;;;;;;;;;;5053590;28;20182;-67
2022/07/17 05:19:23;;;;;;;5.53;2.40;;;;;;;;;;5053800;28;20211;-67
2022/07/17 05:21:49;;;;;;;3.87;2.50;;;;;;;;;;5053369;28;20265;-67
2022/07/17 05:24:15;;;;;;;5.50;2.47;;;;;;;;;;5053255;28;20185;-67
2022/07/17 05:26:41;;;;;;;7.77;2.60;;;;;;;;;;5035197;28;20639;-67
2022/07/17 05:29:07;;;;;;;7.20;2.50;;;;;;;;;;5053200;28;20678;-66
2022/07/17 05:31:33;;;;;;;7.07;2.57;;;;;;;;;;5053252;28;20185;-67
2022/07/17 05:34:00;;;;;;;7.17;2.93;;;;;;;;;;5053087;28;20185;-67
2022/07/17 05:36:26;;;;;;;12.17;3.17;;;;;;;;;;5035275;28;20725;-67
2022/07/17 05:38:52;;;;;;;4.47;2.83;;;;;;;;;;5053008;28;20352;-67
2022/07/17 05:41:18;;;;;;;4.33;2.80;;;;;;;;;;5035264;28;20205;-66
2022/07/17 05:43:44;;;;;;;5.50;2.70;;;;;;;;;;5053012;28;20211;-67
2022/07/17 05:46:10;;;;;;;6.40;3.20;;;;;;;;;;5052886;28;20174;-67
2022/07/17 05:48:35;;;;;;;4.23;2.40;;;;;;;;;;5052881;28;20257;-67
2022/07/17 05:51:02;;;;;;;7.70;2.50;;;;;;;;;;5053221;28;20185;-68
2022/07/17 05:53:27;;;;;;;5.63;2.83;;;;;;;;;;5035124;28;20270;-66
2022/07/17 05:55:53;;;;;;;5.43;2.50;;;;;;;;;;5035049;28;20186;-67
2022/07/17 05:58:19;;;;;;;8.00;2.83;;;;;;;;;;5052822;28;20273;-67
2022/07/17 06:00:45;;;;;;;4.17;2.87;;;;;;;;;;5053060;28;20174;-67
2022/07/17 06:03:12;;;;;;;3.97;2.50;;;;;;;;;;5052790;28;20175;-67
2022/07/17 06:05:37;;;;;;;4.87;2.83;;;;;;;;;;5055103;28;20171;-67
2022/07/17 06:08:04;;;;;;;5.23;2.63;;;;;;;;;;5056815;28;20225;-66
2022/07/17 06:10:30;;;;;;;5.47;2.73;;;;;;;;;;5039436;28;20247;-67
2022/07/17 06:12:56;;;;;;;8.40;2.97;;;;;;;;;;5038958;28;20178;-67
2022/07/17 06:15:23;;;;;;;4.50;2.47;;;;;;;;;;5056755;28;20179;-67
2022/07/17 06:17:49;;;;;;;6.53;2.87;;;;;;;;;;5038735;28;20234;-66
2022/07/17 06:20:15;;;;;;;5.13;2.80;;;;;;;;;;5056540;28;20178;-66
2022/07/17 06:22:41;;;;;;;8.13;2.90;;;;;;;;;;5056861;28;20708;-67
2022/07/17 06:25:08;;;;;;;6.20;2.67;;;;;;;;;;5038674;28;20638;-67
2022/07/17 06:27:34;;;;;;;5.83;3.30;;;;;;;;;;5056343;28;20206;-66
2022/07/17 06:30:00;;;;;;;4.53;2.60;;;;;;;;;;5038492;28;20182;-67
2022/07/17 06:32:26;;;;;;;10.37;3.27;;;;;;;;;;5056399;28;20174;-67
2022/07/17 06:34:51;;;;;;;8.50;3.10;;;;;;;;;;5056498;28;20185;-66
2022/07/17 06:37:17;;;;;;;8.90;3.27;;;;;;;;;;5038457;28;20236;-67
2022/07/17 06:39:43;;;;;;;5.77;2.93;;;;;;;;;;5038329;28;20199;-66
2022/07/17 06:42:10;;;;;;;5.10;2.87;;;;;;;;;;5056328;28;20666;-66
2022/07/17 06:44:36;;;;;;;8.53;4.03;;;;;;;;;;5056542;28;20190;-67
2022/07/17 06:47:02;;;;;;;7.07;4.30;;;;;;;;;;5056281;28;20216;-67
2022/07/17 06:49:28;;;;;;;10.50;3.50;;;;;;;;;;5055982;28;20222;-67
2022/07/17 06:51:54;;;;;;;9.47;4.20;;;;;;;;;;5038237;28;20227;-70
2022/07/17 06:54:23;;;;;;;7.87;4.33;;;;;;;;;;5056412;28;20654;-67
2022/07/17 06:56:49;;;;;;;11.20;3.87;;;;;;;;;;5056694;28;20631;-67
2022/07/17 06:59:15;;;;;;;7.37;4.07;;;;;;;;;;5055964;28;20206;-67
2022/07/17 07:01:41;;;;;;;8.80;4.10;;;;;;;;;;5055885;28;20174;-68
2022/07/17 07:04:07;;;;;;;9.07;4.37;;;;;;;;;;5056056;28;20170;-66
2022/07/17 07:06:33;;;;;;;14.27;5.33;;;;;;;;;;5055780;28;20301;-67
2022/07/17 07:08:59;;;;;;;12.30;5.53;;;;;;;;;;5037754;28;20198;-67
2022/07/17 07:11:25;;;;;;;13.43;5.87;;;;;;;;;;5055992;28;20175;-66
2022/07/17 07:13:50;;;;;;;12.13;4.60;;;;;;;;;;5055719;28;20681;-67
2022/07/17 07:16:16;;;;;;;9.00;5.23;;;;;;;;;;5055463;28;20215;-67
2022/07/17 07:18:43;;;;;;;10.47;4.93;;;;;;;;;;5055730;28;20202;-67
2022/07/17 07:21:09;;;;;;;14.00;5.37;;;;;;;;;;5055861;28;20186;-67
2022/07/17 07:23:35;;;;;;;17.27;6.07;;;;;;;;;;5055455;28;20178;-67
2022/07/17 07:26:01;;;;;;;13.07;5.97;;;;;;;;;;5055526;28;20182;-67
2022/07/17 07:28:27;;;;;;;11.17;5.57;;;;;;;;;;5055548;28;20242;-67
2022/07/17 07:30:53;;;;;;;7.60;3.90;;;;;;;;;;5055596;28;20249;-67
2022/07/17 07:33:19;;;;;;;11.10;4.67;;;;;;;;;;5055224;28;20642;-67
2022/07/17 07:35:45;;;;;;;15.83;5.03;;;;;;;;;;5037613;28;20205;-67
2022/07/17 07:38:11;;;;;;;12.17;4.50;;;;;;;;;;5055083;28;20718;-67
2022/07/17 07:40:37;;;;;;;11.20;4.87;;;;;;;;;;5037338;28;20182;-67
2022/07/17 07:43:03;;;;;;;14.77;5.03;;;;;;;;;;5055376;28;20181;-67
2022/07/17 07:45:30;;;;;;;9.43;4.40;;;;;;;;;;5055272;28;20261;-67
2022/07/17 07:47:56;;;;;;;8.20;4.10;;;;;;;;;;5036841;28;20223;-67
2022/07/17 07:50:23;;;;;;;8.00;4.07;;;;;;;;;;5055006;28;20657;-67
2022/07/17 07:52:49;;;;;;;8.37;3.63;;;;;;;;;;5055178;28;20610;-67
2022/07/17 07:55:16;;;;;;;9.47;3.67;;;;;;;;;;5054884;28;20219;-67
2022/07/17 07:57:42;;;;;;;9.90;3.53;;;;;;;;;;5055008;28;20269;-66
2022/07/17 08:00:08;;;;;;;7.47;3.00;;;;;;;;;;5054877;28;20265;-67
2022/07/17 08:02:35;;;;;;;5.67;2.97;;;;;;;;;;5054798;28;20183;-67
2022/07/17 08:05:01;;;;;;;8.17;3.40;;;;;;;;;;5036728;28;20186;-67
2022/07/17 08:07:27;;;;;;;4.00;2.50;;;;;;;;;;5054702;28;20293;-66
2022/07/17 08:09:53;;;;;;;5.40;2.40;;;;;;;;;;5054619;28;20175;-67
2022/07/17 08:12:19;;;;;;;3.33;1.90;;;;;;;;;;5054537;28;20171;-67
2022/07/17 08:14:45;;;;;;;6.03;2.37;;;;;;;;;;5054514;28;20256;-67
2022/07/17 08:17:11;;;;;;;3.73;2.30;;;;;;;;;;5054457;28;20610;-67
2022/07/17 08:19:37;;;;;;;5.20;2.20;;;;;;;;;;5054417;28;20209;-67
2022/07/17 08:22:03;;;;;;;4.30;2.07;;;;;;;;;;5054308;28;20182;-67
2022/07/17 08:24:29;;;;;;;6.27;2.07;;;;;;;;;;5036443;28;20269;-67
2022/07/17 08:26:55;;;;;;;4.40;1.90;;;;;;;;;;5053743;28;20233;-67
2022/07/17 08:29:21;;;;;;;2.93;2.13;;;;;;;;;;5035892;28;20248;-67
2022/07/17 08:31:47;;;;;;;7.43;2.67;;;;;;;;;;5054344;28;20174;-67
2022/07/17 08:34:14;;;;;;;7.20;2.90;;;;;;;;;;5054126;28;20285;-67
2022/07/17 08:36:40;;;;;;;4.07;2.20;;;;;;;;;;5036152;28;20193;-67
2022/07/17 08:39:06;;;;;;;6.10;2.50;;;;;;;;;;5054282;28;20292;-67
2022/07/17 08:41:36;;;;;;;7.77;2.80;;;;;;;;;;5036120;28;20788;-67
2022/07/17 08:44:02;;;;;;;8.03;2.93;;;;;;;;;;5036146;28;20178;-67
2022/07/17 08:46:29;;;;;;;5.30;2.60;;;;;;;;;;5054007;28;20662;-67
2022/07/17 08:48:59;;;;;;;4.90;2.30;;;;;;;;;;5035724;28;20214;-67
2022/07/17 08:51:26;;;;;;;5.30;3.20;;;;;;;;;;5054125;28;20228;-66
2022/07/17 08:53:52;;;;;;;4.30;2.47;;;;;;;;;;5035969;28;20643;-66
2022/07/17 08:56:18;;;;;;;6.13;2.60;;;;;;;;;;5053641;28;20215;-67
2022/07/17 08:58:44;;;;;;;5.50;2.50;;;;;;;;;;5035776;28;20279;-66
2022/07/17 09:01:10;;;;;;;6.43;2.67;;;;;;;;;;5054141;28;20179;-67
2022/07/17 09:03:36;;;;;;;6.47;2.40;;;;;;;;;;5053511;28;20572;-67
2022/07/17 09:06:03;;;;;;;7.67;3.17;;;;;;;;;;5054066;28;20232;-66
2022/07/17 09:08:32;;;;;;;4.20;2.47;;;;;;;;;;5035411;28;20215;-67
2022/07/17 09:10:59;;;;;;;6.17;2.60;;;;;;;;;;5035696;28;20601;-67
2022/07/17 09:13:28;;;;;;;6.67;2.90;;;;;;;;;;5053428;28;20229;-67
2022/07/17 09:15:58;;;;;;;4.10;2.20;;;;;;;;;;5053323;28;20264;-67
2022/07/17 09:18:24;;;;;;;4.63;2.33;;;;;;;;;;5053687;28;20244;-67
2022/07/17 09:20:52;;;;;;;10.73;2.60;;;;;;;;;;5053179;28;20206;-67
2022/07/17 09:23:19;;;;;;;6.40;2.80;;;;;;;;;;5036197;28;20545;-66
2022/07/17 09:25:46;;;;;;;4.60;2.20;;;;;;;;;;5053857;28;20182;-66
2022/07/17 09:28:13;;;;;;;5.37;2.40;;;;;;;;;;5052954;28;20214;-66
2022/07/17 09:30:44;;;;;;;5.77;2.20;;;;;;;;;;5035579;28;20585;-67
2022/07/17 09:33:14;;;;;;;7.83;3.03;;;;;;;;;;5052944;28;20170;-66
2022/07/17 09:35:49;;;;;;;6.47;2.27;;;;;;;;;;5052795;28;20174;-67
2022/07/17 09:38:51;;;;;;;13.83;2.90;;;;;;;;;;5052751;28;20198;-67
2022/07/17 09:41:18;;;;;;;5.50;2.00;;;;;;;;;;4955963;28;20223;-66
2022/07/17 09:43:47;;;;;;;5.80;2.43;;;;;;;;;;5037743;28;20194;-67
2022/07/17 09:46:15;;;;;;;4.80;2.57;;;;;;;;;;5053038;28;20262;-67
2022/07/17 09:48:46;;;;;;;5.33;2.77;;;;;;;;;;5052863;28;20623;-65
2022/07/17 09:51:12;;;;;;;6.93;2.20;;;;;;;;;;5053634;28;20163;-64
2022/07/17 09:53:39;;;;;;;5.53;2.50;;;;;;;;;;5053476;28;20599;-66
2022/07/17 09:56:05;;;;;;;5.80;2.77;;;;;;;;;;5052818;28;20174;-67
2022/07/17 09:58:32;;;;;;;7.10;2.30;;;;;;;;;;5052746;28;20202;-66
2022/07/17 10:00:59;;;;;;;6.40;2.27;;;;;;;;;;5053379;28;20174;-66
2022/07/17 10:03:25;;;;;;;3.57;2.17;;;;;;;;;;5052977;28;20174;-66
2022/07/17 10:05:51;;;;;;;4.57;2.10;;;;;;;;;;5053081;28;20232;-66
2022/07/17 10:08:17;;;;;;;5.03;2.33;;;;;;;;;;5034684;28;20214;-67
2022/07/17 10:10:43;;;;;;;5.00;2.37;;;;;;;;;;5052708;28;20257;-66
2022/07/17 10:13:09;;;;;;;4.97;2.70;;;;;;;;;;5034852;28;20190;-67
2022/07/17 10:15:36;;;;;;;3.63;2.10;;;;;;;;;;5034900;28;20189;-66
2022/07/17 10:18:08;;;;;;;5.97;2.40;;;;;;;;;;5034775;28;20232;-64
2022/07/17 10:20:34;;;;;;;3.03;2.20;;;;;;;;;;5052644;28;20604;-66
2022/07/17 10:23:00;;;;;;;5.17;2.10;;;;;;;;;;5052739;28;20189;-66
2022/07/17 10:25:26;;;;;;;8.90;2.70;;;;;;;;;;5052580;28;20174;-66
2022/07/17 10:27:53;;;;;;;3.70;2.20;;;;;;;;;;5052730;28;20210;-66
2022/07/17 10:30:23;;;;;;;3.50;2.10;;;;;;;;;;5052960;28;20541;-67
2022/07/17 10:32:58;;;;;;;4.90;2.30;;;;;;;;;;5052799;28;20258;-66
2022/07/17 10:35:25;;;;;;;3.70;2.20;;;;;;;;;;5052531;28;20162;-66
2022/07/17 10:37:51;;;;;;;3.60;2.03;;;;;;;;;;5034611;28;20202;-67
2022/07/17 10:40:24;;;;;;;4.67;2.43;;;;;;;;;;5052358;28;20239;-66
2022/07/17 10:42:58;;;;;;;5.30;1.93;;;;;;;;;;5052387;28;20183;-66
2022/07/17 10:45:32;;;;;;;5.87;2.33;;;;;;;;;;5052750;28;20629;-66
2022/07/17 10:48:09;;;;;;;3.60;1.93;;;;;;;;;;5052151;28;20586;-66
2022/07/17 10:50:36;;;;;;;4.60;2.17;;;;;;;;;;5052857;28;20249;-67
2022/07/17 10:53:07;;;;;;;4.47;2.07;;;;;;;;;;5038206;28;20185;-67
2022/07/17 10:55:34;;;;;;;4.47;1.93;;;;;;;;;;5055864;28;20315;-67
2022/07/17 10:58:00;;;;;;;6.10;2.23;;;;;;;;;;5056355;28;20261;-67
2022/07/17 11:00:26;;;;;;;5.47;1.90;;;;;;;;;;5055950;28;20182;-67
2022/07/17 11:02:52;;;;;;;3.23;1.83;;;;;;;;;;5038044;28;20720;-67
2022/07/17 11:05:19;;;;;;;10.83;2.67;;;;;;;;;;5055890;28;20179;-67
2022/07/17 11:07:55;;;;;;;7.40;2.13;;;;;;;;;;5055623;28;20210;-67
2022/07/17 11:10:21;;;;;;;5.70;2.10;;;;;;;;;;5056082;28;20182;-67
2022/07/17 11:12:47;;;;;;;4.10;2.30;;;;;;;;;;5055723;28;20639;-67
2022/07/17 11:15:13;;;;;;;4.83;2.37;;;;;;;;;;5055705;28;20209;-67
2022/07/17 11:17:44;;;;;;;3.97;2.17;;;;;;;;;;5055892;28;20178;-66
2022/07/17 11:20:10;;;;;;;5.37;2.20;;;;;;;;;;5037804;28;20198;-67
2022/07/17 11:22:36;;;;;;;6.73;2.27;;;;;;;;;;5055615;28;20756;-65
2022/07/17 11:25:04;;;;;;;3.83;2.00;;;;;;;;;;5037815;28;20186;-67
2022/07/17 11:27:31;;;;;;;9.43;3.13;;;;;;;;;;5055290;28;20206;-67
2022/07/17 11:29:58;;;;;;;3.60;2.33;;;;;;;;;;5055915;28;20171;-66
2022/07/17 11:32:28;;;;;;;3.33;1.90;;;;;;;;;;5055312;28;20261;-66
2022/07/17 11:34:54;;;;;;;2.93;2.00;;;;;;;;;;5037439;28;20220;-67
2022/07/17 11:37:21;;;;;;;6.23;3.03;;;;;;;;;;5055441;28;20178;-67
2022/07/17 11:39:49;;;;;;;5.00;2.07;;;;;;;;;;5055557;28;20685;-67
2022/07/17 11:42:21;;;;;;;3.23;2.37;;;;;;;;;;5055945;28;20252;-67
2022/07/17 11:44:50;;;;;;;7.27;2.23;;;;;;;;;;5055836;28;20179;-66
2022/07/17 11:47:20;;;;;;;4.87;2.43;;;;;;;;;;5055470;28;20201;-67
2022/07/17 11:49:46;;;;;;;4.20;2.10;;;;;;;;;;5055325;28;20210;-66
2022/07/17 11:52:16;;;;;;;3.47;1.80;;;;;;;;;;5055433;28;20174;-67
2022/07/17 11:54:46;;;;;;;6.30;2.37;;;;;;;;;;5055177;28;20178;-67
2022/07/17 11:57:13;;;;;;;3.47;2.20;;;;;;;;;;5055156;28;20539;-67
2022/07/17 11:59:39;;;;;;;7.27;2.40;;;;;;;;;;5037506;28;20286;-68
2022/07/17 12:02:13;;;;;;;4.23;1.90;;;;;;;;;;5054233;28;20654;-64
2022/07/17 12:04:52;;;;;;;5.27;2.03;;;;;;;;;;5054669;28;20186;-66
2022/07/17 12:07:18;;;;;;;4.27;2.13;;;;;;;;;;5055409;28;20194;-66
2022/07/17 12:09:44;;;;;;;3.43;2.03;;;;;;;;;;5054599;28;20274;-66
2022/07/17 12:12:26;;;;;;;9.30;2.30;;;;;;;;;;5054602;28;20609;-70
2022/07/17 12:14:57;;;;;;;5.93;2.27;;;;;;;;;;5054487;28;20631;-69
2022/07/17 12:17:23;;;;;;;6.93;2.07;;;;;;;;;;5054815;28;20551;-67
2022/07/17 12:19:50;;;;;;;4.83;2.13;;;;;;;;;;5036510;28;20690;-67
2022/07/17 12:22:16;;;;;;;2.77;2.00;;;;;;;;;;5054566;28;20178;-67
2022/07/17 12:24:43;;;;;;;3.10;1.93;;;;;;;;;;5036406;28;20232;-66
2022/07/17 12:27:13;;;;;;;3.83;2.10;;;;;;;;;;5036325;28;20202;-67
2022/07/17 12:29:39;;;;;;;6.87;2.00;;;;;;;;;;5054225;28;20201;-67
2022/07/17 12:32:05;;;;;;;6.50;2.30;;;;;;;;;;5054798;28;20178;-68
2022/07/17 12:34:31;;;;;;;4.33;1.90;;;;;;;;;;5054252;28;20175;-68
2022/07/17 12:36:57;;;;;;;2.77;2.10;;;;;;;;;;5054177;28;20182;-68
2022/07/17 12:39:24;;;;;;;5.27;1.97;;;;;;;;;;5053925;28;20194;-68
2022/07/17 12:41:50;;;;;;;5.17;2.30;;;;;;;;;;5036036;28;20193;-67
2022/07/17 12:44:15;;;;;;;3.23;1.90;;;;;;;;;;5053658;28;20178;-67
2022/07/17 12:46:41;;;;;;;4.30;1.83;;;;;;;;;;5055273;28;20181;-68
2022/07/17 12:49:07;;;;;;;2.80;1.77;;;;;;;;;;5053507;28;20210;-67
2022/07/17 12:51:33;;;;;;;4.47;2.37;;;;;;;;;;5035837;28;20660;-68
2022/07/17 12:53:59;;;;;;;3.13;1.97;;;;;;;;;;5053751;28;20198;-68
2022/07/17 12:56:26;;;;;;;2.77;1.93;;;;;;;;;;5053571;28;20590;-68
2022/07/17 12:58:52;;;;;;;2.83;1.80;;;;;;;;;;5053657;28;20280;-68
2022/07/17 13:01:19;;;;;;;2.07;1.70;;;;;;;;;;5053551;28;20269;-69
2022/07/17 13:03:44;;;;;;;5.17;2.80;;;;;;;;;;5053935;28;20224;-68
2022/07/17 13:06:11;;;;;;;7.07;2.90;;;;;;;;;;5053763;28;20190;-68
2022/07/17 13:08:37;;;;;;;5.60;3.20;;;;;;;;;;5053543;28;20217;-68
2022/07/17 13:11:03;;;;;;;2.80;2.20;;;;;;;;;;5053906;28;20178;-69
2022/07/17 13:13:29;;;;;;;3.10;2.30;;;;;;;;;;5053213;28;20179;-68
2022/07/17 13:15:55;;;;;;;6.37;2.23;;;;;;;;;;5035662;28;20182;-68
2022/07/17 13:18:22;;;;;;;4.07;2.27;;;;;;;;;;5053593;28;20195;-68
2022/07/17 13:20:48;;;;;;;4.20;2.53;;;;;;;;;;5054013;28;20261;-69
2022/07/17 13:23:15;;;;;;;6.53;2.50;;;;;;;;;;5053618;28;20657;-69
2022/07/17 13:25:42;;;;;;;4.90;2.50;;;;;;;;;;5053547;28;20174;-68
2022/07/17 13:28:09;;;;;;;7.07;2.67;;;;;;;;;;5053227;28;20213;-68
2022/07/17 13:30:34;;;;;;;3.17;2.20;;;;;;;;;;5035503;28;20182;-68
2022/07/17 13:33:01;;;;;;;4.90;2.57;;;;;;;;;;5035445;28;20185;-68
2022/07/17 13:35:27;;;;;;;3.40;2.20;;;;;;;;;;5053185;28;20253;-68
2022/07/17 13:37:53;;;;;;;3.03;2.43;;;;;;;;;;5053382;28;20287;-68
2022/07/17 13:40:19;;;;;;;2.20;2.00;;;;;;;;;;5053269;28;20228;-68
2022/07/17 13:42:46;;;;;;;4.63;1.97;;;;;;;;;;5035462;28;20189;-69
2022/07/17 13:45:12;;;;;;;2.92;2.30;;;;;;;;;;5035740;28;20173;-67
2022/07/17 13:47:39;;;;;;;7.03;2.55;;;;;;;;;;5052927;28;20202;-68
2022/07/17 13:50:05;;;;;;;5.07;2.40;;;;;;;;;;5053127;28;20178;-68
2022/07/17 13:52:31;;;;;;;4.35;2.67;;;;;;;;;;5053275;28;20182;-68
2022/07/17 13:54:58;;;;;;;5.05;3.10;;;;;;;;;;5052975;28;20707;-68
2022/07/17 13:57:24;;;;;;;7.28;3.40;;;;;;;;;;5053139;28;20257;-68
2022/07/17 13:59:50;;;;;;;5.05;3.20;;;;;;;;;;5053359;28;20225;-68
2022/07/17 14:02:16;;;;;;;6.00;3.63;;;;;;;;;;5034950;28;20179;-68
2022/07/17 14:04:42;;;;;;;5.97;3.30;;;;;;;;;;5052805;28;20202;-69
2022/07/17 14:07:08;;;;;;;8.30;4.00;;;;;;;;;;5052848;28;20229;-69
2022/07/17 14:09:34;;;;;;;5.57;3.33;;;;;;;;;;5034991;28;20277;-69
2022/07/17 14:12:00;;;;;;;4.53;2.70;;;;;;;;;;5052808;28;20178;-68
2022/07/17 14:14:26;;;;;;;3.58;2.63;;;;;;;;;;5052568;28;20181;-69
2022/07/17 14:16:52;;;;;;;4.88;3.08;;;;;;;;;;5052599;28;20175;-68
2022/07/17 14:19:18;;;;;;;4.35;2.80;;;;;;;;;;5035253;28;20210;-68
2022/07/17 14:21:44;;;;;;;4.15;2.90;;;;;;;;;;5051430;28;20927;-68
2022/07/17 14:24:10;;;;;;;4.60;2.65;;;;;;;;;;5051671;28;20730;-68
2022/07/17 14:26:36;;;;;;;3.45;2.53;;;;;;;;;;5054823;28;20190;-68
2022/07/17 14:29:03;;;;;;;5.45;2.60;;;;;;;;;;5056590;28;20191;-68
2022/07/17 14:31:29;;;;;;;3.85;2.53;;;;;;;;;;5056484;28;20200;-68
2022/07/17 14:33:55;;;;;;;3.67;2.00;;;;;;;;;;5038634;28;20190;-68
2022/07/17 14:36:22;;;;;;;3.95;2.55;;;;;;;;;;5056376;28;20171;-69
2022/07/17 14:38:48;;;;;;;3.70;2.78;;;;;;;;;;5056844;28;20251;-68